Time;durP1;ratioP1;P1;durP2;ratioP2;P2;SDS_P1;SDS_P2;PMS_P1;PMS_P2;Temp;Humidity;BMP_temperature;BMP_pressure;BME280_temperature;BME280_humidity;BME280_pressure;Samples;Min_cycle;Max_cycle;Signal;HPM_P1;HPM_P2
2022/01/08 00:00:20;;;;;;;12.85;7.95;;;1.20;99.90;;;;;;4884303;29;20047;-71
2022/01/08 00:02:46;;;;;;;12.48;8.15;;;1.20;99.90;;;;;;4895977;29;20032;-72
2022/01/08 00:05:11;;;;;;;13.73;8.48;;;1.20;99.90;;;;;;4894873;29;20107;-72
2022/01/08 00:07:37;;;;;;;15.25;8.93;;;1.20;99.90;;;;;;4885005;29;20042;-72
2022/01/08 00:10:02;;;;;;;13.88;8.80;;;1.20;99.90;;;;;;4893804;29;20021;-72
2022/01/08 00:12:28;;;;;;;14.90;8.82;;;1.20;99.90;;;;;;4901572;29;20059;-70
2022/01/08 00:14:54;;;;;;;13.45;8.27;;;1.10;99.90;;;;;;4892720;29;20032;-71
2022/01/08 00:17:22;;;;;;;16.00;8.75;;;1.10;99.90;;;;;;4894116;29;20092;-72
2022/01/08 00:19:48;;;;;;;14.23;8.57;;;1.10;99.90;;;;;;4861728;29;20028;-71
2022/01/08 00:22:13;;;;;;;11.88;8.13;;;1.00;99.90;;;;;;4875116;29;20619;-72
2022/01/08 00:24:39;;;;;;;11.05;7.47;;;1.00;99.90;;;;;;4885478;29;20032;-72
2022/01/08 00:27:04;;;;;;;12.70;7.90;;;1.00;99.90;;;;;;4896660;29;20892;-71
2022/01/08 00:29:30;;;;;;;12.10;7.80;;;1.10;99.90;;;;;;4886459;29;20134;-71
2022/01/08 00:31:55;;;;;;;10.95;7.13;;;1.10;99.90;;;;;;4897065;29;20025;-72
2022/01/08 00:34:21;;;;;;;14.32;8.77;;;1.10;99.90;;;;;;4872796;29;20880;-72
2022/01/08 00:36:46;;;;;;;12.40;8.23;;;1.10;99.90;;;;;;4892001;29;20155;-73
2022/01/08 00:39:11;;;;;;;12.70;8.25;;;1.10;99.90;;;;;;4894119;29;20032;-72
2022/01/08 00:41:37;;;;;;;12.32;8.00;;;1.20;99.90;;;;;;4899185;29;20838;-72
2022/01/08 00:44:03;;;;;;;12.80;8.18;;;1.10;99.90;;;;;;4897100;29;20444;-73
2022/01/08 00:46:28;;;;;;;12.13;8.13;;;1.20;99.90;;;;;;4903159;29;20907;-73
2022/01/08 00:48:53;;;;;;;13.45;8.63;;;1.20;99.90;;;;;;4889893;29;20561;-72
2022/01/08 00:51:19;;;;;;;14.40;8.93;;;1.20;99.90;;;;;;4895673;29;20044;-72
2022/01/08 00:53:44;;;;;;;12.82;8.73;;;1.20;99.90;;;;;;4897515;29;20032;-72
2022/01/08 00:56:10;;;;;;;14.30;9.13;;;1.30;99.90;;;;;;4899067;29;20828;-73
2022/01/08 00:58:35;;;;;;;15.13;9.35;;;1.30;99.90;;;;;;4901955;29;20032;-72
2022/01/08 01:01:01;;;;;;;15.50;9.65;;;1.30;99.90;;;;;;4881753;29;20035;-72
2022/01/08 01:03:26;;;;;;;17.25;9.90;;;1.30;99.90;;;;;;4882592;29;20068;-72
2022/01/08 01:05:52;;;;;;;13.70;9.27;;;1.50;99.90;;;;;;4895103;29;20710;-72
2022/01/08 01:08:17;;;;;;;16.15;9.95;;;1.30;99.90;;;;;;4884921;29;20029;-72
2022/01/08 01:10:43;;;;;;;14.00;9.55;;;1.30;99.90;;;;;;4894832;29;20662;-73
2022/01/08 01:13:08;;;;;;;17.15;10.07;;;1.30;99.90;;;;;;4894050;29;20036;-71
2022/01/08 01:15:34;;;;;;;16.98;10.32;;;1.20;99.90;;;;;;4898351;29;20758;-72
2022/01/08 01:17:59;;;;;;;16.52;9.88;;;1.30;99.90;;;;;;4891892;29;20032;-72
2022/01/08 01:20:25;;;;;;;14.25;9.13;;;1.20;99.90;;;;;;4898034;29;20420;-72
2022/01/08 01:25:21;;;;;;;15.57;10.45;;;1.30;99.90;;;;;;4886737;29;20040;-71
2022/01/08 01:28:07;;;;;;;17.65;10.13;;;1.30;99.90;;;;;;4902401;29;20028;-72
2022/01/08 01:41:30;;;;;;;18.80;10.80;;;1.50;99.90;;;;;;4888315;29;20044;-71
2022/01/08 01:49:14;;;;;;;14.27;9.70;;;1.40;99.90;;;;;;4887353;29;20521;-72
2022/01/08 01:51:40;;;;;;;16.45;10.10;;;1.30;99.90;;;;;;4902285;29;20203;-72
2022/01/08 01:54:05;;;;;;;16.02;9.52;;;1.40;99.90;;;;;;4899261;29;20119;-72
2022/01/08 01:56:31;;;;;;;16.10;10.30;;;1.90;99.90;;;;;;4882039;29;20032;-71
2022/01/08 01:58:56;;;;;;;15.80;10.48;;;1.30;99.90;;;;;;4895407;29;20032;-71
2022/01/08 02:01:22;;;;;;;16.48;9.63;;;1.20;99.90;;;;;;4896926;29;20050;-71
2022/01/08 02:03:47;;;;;;;16.55;10.95;;;1.20;99.90;;;;;;4901393;29;20068;-72
2022/01/08 02:06:13;;;;;;;16.88;10.05;;;1.20;99.90;;;;;;4902966;29;20028;-71
2022/01/08 02:08:39;;;;;;;16.23;10.30;;;1.20;99.90;;;;;;4897687;29;20446;-71
2022/01/08 02:11:06;;;;;;;17.30;10.95;;;1.20;99.90;;;;;;4894143;29;20080;-71
2022/01/08 02:13:32;;;;;;;17.20;10.43;;;1.20;99.90;;;;;;4892243;29;20068;-72
2022/01/08 02:16:00;;;;;;;19.95;11.30;;;1.30;99.90;;;;;;4895268;29;20062;-71
2022/01/08 02:18:28;;;;;;;19.10;11.48;;;1.30;99.90;;;;;;4899060;29;20040;-71
2022/01/08 02:20:54;;;;;;;22.33;10.65;;;1.40;99.90;;;;;;4897756;29;20401;-71
2022/01/08 02:23:19;;;;;;;17.95;10.43;;;1.40;99.90;;;;;;4878938;29;20032;-71
2022/01/08 02:25:45;;;;;;;18.65;10.30;;;1.50;99.90;;;;;;4881815;29;20028;-71
2022/01/08 02:28:10;;;;;;;14.52;9.55;;;1.50;99.90;;;;;;4896867;29;20052;-72
2022/01/08 02:30:36;;;;;;;15.30;10.13;;;1.50;99.90;;;;;;4896523;29;20032;-72
2022/01/08 02:33:01;;;;;;;16.30;10.30;;;1.50;99.90;;;;;;4901019;29;20088;-72
2022/01/08 02:35:27;;;;;;;16.50;10.50;;;1.60;99.90;;;;;;4887922;29;20894;-72
2022/01/08 02:37:52;;;;;;;17.85;10.68;;;1.50;99.90;;;;;;4896479;29;20037;-71
2022/01/08 02:40:22;;;;;;;18.77;11.02;;;1.60;99.90;;;;;;4900154;29;20036;-71
2022/01/08 02:42:51;;;;;;;16.95;10.85;;;1.60;99.90;;;;;;4894935;29;20047;-72
2022/01/08 02:45:17;;;;;;;17.20;10.43;;;1.60;99.90;;;;;;4898812;29;20067;-71
2022/01/08 02:47:43;;;;;;;16.35;10.60;;;1.60;99.90;;;;;;4901782;29;20036;-71
2022/01/08 02:50:08;;;;;;;18.15;10.18;;;1.60;99.90;;;;;;4899684;29;20028;-71
2022/01/08 02:52:34;;;;;;;17.25;10.38;;;1.60;99.90;;;;;;4886811;29;20068;-71
2022/01/08 02:54:59;;;;;;;18.88;10.38;;;1.50;99.90;;;;;;4899029;29;20110;-72
2022/01/08 02:57:24;;;;;;;19.52;10.45;;;1.60;99.90;;;;;;4886361;29;20091;-72
2022/01/08 02:59:50;;;;;;;18.10;10.77;;;1.60;99.90;;;;;;4901628;29;20067;-72
2022/01/08 03:02:15;;;;;;;16.88;10.18;;;1.60;99.90;;;;;;4899872;29;20500;-72
2022/01/08 03:04:41;;;;;;;16.58;10.65;;;1.60;99.90;;;;;;4882303;29;20032;-72
2022/01/08 03:07:06;;;;;;;18.42;11.02;;;1.60;99.90;;;;;;4894203;29;20076;-72
2022/01/08 03:09:37;;;;;;;17.55;11.27;;;1.50;99.90;;;;;;4885850;29;20107;-72
2022/01/08 03:12:02;;;;;;;18.70;11.45;;;1.40;99.90;;;;;;4884127;29;20034;-72
2022/01/08 03:14:28;;;;;;;17.75;11.13;;;1.40;99.90;;;;;;4894870;29;20601;-72
2022/01/08 03:16:53;;;;;;;18.17;11.02;;;1.30;99.90;;;;;;4886142;29;20039;-72
2022/01/08 03:19:19;;;;;;;20.00;11.55;;;1.20;99.90;;;;;;4896699;29;20037;-72
2022/01/08 03:21:51;;;;;;;20.13;11.07;;;1.10;99.90;;;;;;4881715;29;20028;-72
2022/01/08 03:24:25;;;;;;;16.30;10.50;;;1.10;99.90;;;;;;4886805;29;20047;-72
2022/01/08 03:26:50;;;;;;;19.38;10.88;;;1.00;99.90;;;;;;4893072;29;20032;-72
2022/01/08 03:29:16;;;;;;;18.27;10.90;;;1.00;99.90;;;;;;4905218;29;20684;-72
2022/01/08 03:31:41;;;;;;;18.73;10.60;;;0.90;99.90;;;;;;4883883;29;20056;-72
2022/01/08 03:34:07;;;;;;;17.73;10.43;;;0.90;99.90;;;;;;4896643;29;20044;-72
2022/01/08 03:36:32;;;;;;;17.88;10.75;;;0.90;99.90;;;;;;4885307;29;20474;-72
2022/01/08 03:38:58;;;;;;;22.38;11.48;;;0.80;99.90;;;;;;4896346;29;20492;-72
2022/01/08 03:41:23;;;;;;;20.38;10.98;;;0.80;99.90;;;;;;4879390;29;20059;-72
2022/01/08 03:43:50;;;;;;;19.17;11.30;;;0.80;99.90;;;;;;4878926;29;20037;-71
2022/01/08 03:46:18;;;;;;;21.45;11.98;;;0.80;99.90;;;;;;4892017;29;20056;-71
2022/01/08 03:48:46;;;;;;;18.92;11.60;;;0.90;99.90;;;;;;4897134;29;20909;-71
2022/01/08 03:51:12;;;;;;;21.08;11.38;;;0.90;99.90;;;;;;4883927;29;20078;-65
2022/01/08 03:53:37;;;;;;;20.67;11.10;;;0.90;99.90;;;;;;4886877;29;20785;-66
2022/01/08 03:56:03;;;;;;;18.67;11.07;;;0.90;99.90;;;;;;4869723;29;20774;-65
2022/01/08 03:58:28;;;;;;;22.00;11.02;;;1.00;99.90;;;;;;4885973;29;20048;-65
2022/01/08 04:00:54;;;;;;;21.80;12.18;;;1.00;99.90;;;;;;4891789;29;20040;-66
2022/01/08 04:03:19;;;;;;;22.00;11.40;;;1.00;99.90;;;;;;4894750;29;20044;-66
2022/01/08 04:05:44;;;;;;;21.98;11.85;;;1.10;99.90;;;;;;4892535;29;20131;-66
2022/01/08 04:08:10;;;;;;;21.80;12.10;;;1.20;99.90;;;;;;4892028;29;20127;-66
2022/01/08 04:10:36;;;;;;;21.30;12.15;;;1.30;99.90;;;;;;4897676;29;20079;-66
2022/01/08 04:13:09;;;;;;;21.05;11.98;;;1.30;99.90;;;;;;4896995;29;20213;-66
2022/01/08 04:15:37;;;;;;;23.10;13.30;;;1.30;99.90;;;;;;4883828;29;20044;-66
2022/01/08 04:18:03;;;;;;;20.48;11.70;;;1.20;99.90;;;;;;4895291;29;20048;-66
2022/01/08 04:20:28;;;;;;;24.83;11.95;;;1.20;99.90;;;;;;4889001;29;20511;-66
2022/01/08 04:22:55;;;;;;;20.42;10.73;;;1.20;99.90;;;;;;4878433;29;20036;-65
2022/01/08 04:25:20;;;;;;;21.02;11.75;;;1.20;99.90;;;;;;4900336;29;20392;-65
2022/01/08 04:27:46;;;;;;;19.80;11.07;;;1.30;99.90;;;;;;4894739;29;20035;-66
2022/01/08 04:30:11;;;;;;;21.58;12.48;;;1.30;99.90;;;;;;4892089;29;20040;-65
2022/01/08 04:32:37;;;;;;;19.92;12.20;;;1.30;99.90;;;;;;4893911;29;20489;-65
2022/01/08 04:35:02;;;;;;;19.65;11.88;;;1.30;99.90;;;;;;4887979;29;20035;-65
2022/01/08 04:37:28;;;;;;;20.67;11.50;;;1.40;99.90;;;;;;4895457;29;20074;-66
2022/01/08 04:39:53;;;;;;;19.98;11.75;;;1.40;99.90;;;;;;4894963;29;20119;-66
2022/01/08 04:42:18;;;;;;;21.33;12.02;;;1.50;99.90;;;;;;4891396;29;20052;-66
2022/01/08 04:44:44;;;;;;;20.50;11.60;;;2.00;99.90;;;;;;4874042;29;20032;-66
2022/01/08 04:47:09;;;;;;;20.83;12.02;;;1.50;99.90;;;;;;4892854;29;20040;-65
2022/01/08 04:49:35;;;;;;;21.00;12.38;;;1.50;99.90;;;;;;4881598;29;20047;-65
2022/01/08 04:52:00;;;;;;;22.92;12.82;;;1.50;99.90;;;;;;4892298;29;20061;-65
2022/01/08 04:54:26;;;;;;;22.67;12.35;;;1.50;99.90;;;;;;4899150;29;20040;-67
2022/01/08 04:56:51;;;;;;;22.10;12.75;;;1.60;99.90;;;;;;4894511;29;20063;-66
2022/01/08 04:59:17;;;;;;;22.13;12.25;;;1.50;99.90;;;;;;4893383;29;20032;-66
2022/01/08 05:01:42;;;;;;;22.77;12.13;;;1.50;99.90;;;;;;4880020;29;20040;-65
2022/01/08 05:04:08;;;;;;;21.90;12.38;;;1.60;99.90;;;;;;4894857;29;20826;-66
2022/01/08 05:06:33;;;;;;;26.55;13.90;;;1.60;99.90;;;;;;4899361;29;20493;-65
2022/01/08 05:08:59;;;;;;;23.70;13.43;;;1.60;99.90;;;;;;4897890;29;20059;-65
2022/01/08 05:11:27;;;;;;;21.90;12.23;;;1.60;99.90;;;;;;4894203;29;20068;-65
2022/01/08 05:13:52;;;;;;;25.08;13.02;;;1.60;99.90;;;;;;4894525;29;20035;-65
2022/01/08 05:16:18;;;;;;;22.50;12.35;;;1.60;99.90;;;;;;4886356;29;20096;-65
2022/01/08 05:18:43;;;;;;;20.73;11.80;;;1.60;99.90;;;;;;4898584;29;20040;-65
2022/01/08 05:21:17;;;;;;;24.30;13.50;;;1.60;99.90;;;;;;4897224;29;20055;-66
2022/01/08 05:23:42;;;;;;;22.50;13.00;;;1.60;99.90;;;;;;4898823;29;20042;-65
2022/01/08 05:26:08;;;;;;;22.85;13.13;;;1.50;99.90;;;;;;4894199;29;20024;-65
2022/01/08 05:28:33;;;;;;;21.42;12.75;;;1.60;99.90;;;;;;4899187;29;20489;-71
2022/01/08 05:30:59;;;;;;;21.48;12.27;;;1.50;99.90;;;;;;4905334;29;20200;-71
2022/01/08 05:33:24;;;;;;;22.60;11.98;;;1.60;99.90;;;;;;4905272;29;20055;-71
2022/01/08 05:35:50;;;;;;;22.77;12.60;;;1.60;99.90;;;;;;4899646;29;20045;-71
2022/01/08 05:38:15;;;;;;;24.05;12.48;;;1.50;99.90;;;;;;4889133;29;20123;-72
2022/01/08 05:40:41;;;;;;;22.20;12.63;;;1.60;99.90;;;;;;4884469;29;20036;-72
2022/01/08 05:43:06;;;;;;;24.50;12.48;;;1.60;99.90;;;;;;4882685;29;20107;-71
2022/01/08 05:45:32;;;;;;;22.55;12.13;;;1.60;99.90;;;;;;4895017;29;20076;-72
2022/01/08 05:47:57;;;;;;;23.27;11.80;;;1.60;99.90;;;;;;4887397;29;20036;-72
2022/01/08 05:50:23;;;;;;;25.15;12.05;;;1.50;99.90;;;;;;4899296;29;20051;-72
2022/01/08 05:52:48;;;;;;;25.38;13.10;;;1.50;99.90;;;;;;4892141;29;20091;-72
2022/01/08 05:55:14;;;;;;;23.10;12.55;;;1.40;99.90;;;;;;4886852;29;20580;-72
2022/01/08 05:57:39;;;;;;;21.90;11.52;;;1.40;99.90;;;;;;4899939;29;20056;-71
2022/01/08 06:00:07;;;;;;;19.23;10.65;;;1.10;99.90;;;;;;4891202;29;20686;-71
2022/01/08 06:02:35;;;;;;;21.20;11.23;;;1.10;99.90;;;;;;4898794;29;20594;-71
2022/01/08 06:05:00;;;;;;;20.92;11.68;;;1.00;99.90;;;;;;4896082;29;20064;-71
2022/01/08 06:07:26;;;;;;;23.50;11.95;;;1.10;99.90;;;;;;4879799;29;20820;-71
2022/01/08 06:09:51;;;;;;;22.58;12.30;;;1.20;99.90;;;;;;4895120;29;20035;-71
2022/01/08 06:12:17;;;;;;;22.48;12.57;;;1.30;99.90;;;;;;4897397;29;20036;-72
2022/01/08 06:14:42;;;;;;;24.83;13.45;;;1.30;99.90;;;;;;4882096;29;20128;-71
2022/01/08 06:17:08;;;;;;;22.05;12.07;;;1.40;99.90;;;;;;4902076;29;20076;-71
2022/01/08 06:19:33;;;;;;;24.73;12.63;;;1.40;99.90;;;;;;4899253;29;20346;-71
2022/01/08 06:21:59;;;;;;;27.17;13.63;;;1.40;99.90;;;;;;4891898;29;20111;-71
2022/01/08 06:24:24;;;;;;;25.70;12.65;;;1.50;99.90;;;;;;4897110;29;20119;-72
2022/01/08 06:26:50;;;;;;;28.40;14.48;;;1.60;99.90;;;;;;4901788;29;20059;-71
2022/01/08 06:29:15;;;;;;;25.77;13.02;;;1.60;99.90;;;;;;4892983;29;20053;-72
2022/01/08 06:31:41;;;;;;;24.83;12.85;;;1.60;99.90;;;;;;4893292;29;20389;-72
2022/01/08 06:34:06;;;;;;;24.90;12.27;;;1.60;99.90;;;;;;4899309;29;20871;-71
2022/01/08 06:36:32;;;;;;;26.52;13.70;;;1.50;99.90;;;;;;4885513;29;20032;-71
2022/01/08 06:38:57;;;;;;;23.27;13.20;;;1.60;99.90;;;;;;4899091;29;20047;-72
2022/01/08 06:41:23;;;;;;;22.20;12.35;;;1.60;99.90;;;;;;4901027;29;20055;-72
2022/01/08 06:43:48;;;;;;;36.40;17.85;;;1.50;99.90;;;;;;4905771;29;20036;-71
2022/01/08 06:46:14;;;;;;;32.67;18.88;;;1.50;99.90;;;;;;4880869;29;20040;-71
2022/01/08 06:48:40;;;;;;;26.90;14.10;;;1.40;99.90;;;;;;4901250;29;20052;-71
2022/01/08 06:51:06;;;;;;;25.17;12.65;;;1.20;99.90;;;;;;4895332;29;20031;-72
2022/01/08 06:53:31;;;;;;;22.10;12.02;;;1.10;99.90;;;;;;4883564;29;20036;-71
2022/01/08 06:55:57;;;;;;;24.80;13.32;;;0.90;99.90;;;;;;4898121;29;20488;-72
2022/01/08 06:58:25;;;;;;;24.88;12.15;;;0.90;99.90;;;;;;4900681;29;20111;-71
2022/01/08 07:00:50;;;;;;;25.70;13.23;;;0.90;99.90;;;;;;4903169;29;20052;-71
2022/01/08 07:03:16;;;;;;;27.30;14.60;;;1.00;99.90;;;;;;4902854;29;20920;-72
2022/01/08 07:05:41;;;;;;;27.67;16.15;;;0.90;99.90;;;;;;4883780;29;20031;-72
2022/01/08 07:08:06;;;;;;;26.38;13.65;;;1.20;99.90;;;;;;4870992;29;20036;-72
2022/01/08 07:10:32;;;;;;;29.48;14.85;;;0.80;99.90;;;;;;4902250;29;20400;-72
2022/01/08 07:12:57;;;;;;;26.17;13.27;;;0.80;99.90;;;;;;4895926;29;20032;-72
2022/01/08 07:15:23;;;;;;;24.70;12.77;;;0.80;99.90;;;;;;4897929;29;20039;-72
2022/01/08 07:17:48;;;;;;;22.23;12.32;;;0.80;99.90;;;;;;4893464;29;20189;-71
2022/01/08 07:20:14;;;;;;;23.13;12.75;;;0.70;99.90;;;;;;4873603;29;20749;-72
2022/01/08 07:22:39;;;;;;;23.58;13.35;;;0.70;99.90;;;;;;4867541;29;20036;-71
2022/01/08 07:25:05;;;;;;;24.90;13.57;;;0.60;99.90;;;;;;4897555;29;20795;-72
2022/01/08 07:27:32;;;;;;;25.73;13.10;;;0.50;99.90;;;;;;4900332;29;20036;-72
2022/01/08 07:30:01;;;;;;;24.98;12.82;;;0.50;99.90;;;;;;4894098;29;20465;-71
2022/01/08 07:32:27;;;;;;;26.30;14.77;;;0.50;99.90;;;;;;4897109;29;20032;-71
2022/01/08 07:34:52;;;;;;;26.85;14.95;;;0.50;99.90;;;;;;4896041;29;20548;-72
2022/01/08 07:37:17;;;;;;;27.80;15.02;;;0.50;99.90;;;;;;4880267;29;20036;-72
2022/01/08 07:39:43;;;;;;;25.13;13.50;;;0.50;99.90;;;;;;4882455;29;20063;-72
2022/01/08 07:42:08;;;;;;;25.90;13.00;;;0.50;99.90;;;;;;4883698;29;20043;-72
2022/01/08 07:44:34;;;;;;;24.38;12.98;;;0.50;99.90;;;;;;4871421;29;20032;-72
2022/01/08 07:47:00;;;;;;;25.95;13.13;;;0.50;99.90;;;;;;4885637;29;20404;-71
2022/01/08 07:49:25;;;;;;;25.23;13.50;;;0.60;99.90;;;;;;4897056;29;20036;-71
2022/01/08 07:51:50;;;;;;;25.67;13.05;;;0.60;99.90;;;;;;4882788;29;20039;-71
2022/01/08 07:54:16;;;;;;;26.42;13.18;;;0.60;99.90;;;;;;4902312;29;20040;-71
2022/01/08 07:56:41;;;;;;;66.15;29.52;;;0.70;99.90;;;;;;4894871;29;20524;-71
2022/01/08 07:59:07;;;;;;;53.45;25.60;;;0.80;99.90;;;;;;4899681;29;20036;-70
2022/01/08 08:01:32;;;;;;;45.53;22.50;;;0.80;99.90;;;;;;4883382;29;20691;-70
2022/01/08 08:03:58;;;;;;;34.83;16.35;;;0.90;99.90;;;;;;4883816;29;20547;-71
2022/01/08 08:06:24;;;;;;;25.90;13.55;;;0.90;99.90;;;;;;4900364;29;20271;-71
2022/01/08 08:08:50;;;;;;;24.00;12.25;;;0.90;99.90;;;;;;4889607;29;20562;-71
2022/01/08 08:11:15;;;;;;;28.13;13.05;;;1.00;99.90;;;;;;4885736;29;20982;-71
2022/01/08 08:13:41;;;;;;;24.17;12.35;;;1.10;99.90;;;;;;4878756;29;20032;-71
2022/01/08 08:16:06;;;;;;;28.40;12.82;;;1.10;99.90;;;;;;4891830;29;20583;-70
2022/01/08 08:18:32;;;;;;;23.35;11.93;;;1.10;99.90;;;;;;4896487;29;20043;-71
2022/01/08 08:20:57;;;;;;;22.33;11.52;;;1.10;99.90;;;;;;4870142;29;20040;-70
2022/01/08 08:23:23;;;;;;;21.13;12.43;;;1.10;99.90;;;;;;4887090;29;20493;-71
2022/01/08 08:25:48;;;;;;;23.10;13.50;;;1.10;99.90;;;;;;4894832;29;20036;-70
2022/01/08 08:28:14;;;;;;;25.05;12.40;;;1.10;99.90;;;;;;4883914;29;20605;-70
2022/01/08 08:30:39;;;;;;;25.60;13.80;;;1.20;99.90;;;;;;4889226;29;20031;-70
2022/01/08 08:33:05;;;;;;;22.60;12.52;;;1.20;99.90;;;;;;4901722;29;20028;-70
2022/01/08 08:35:30;;;;;;;22.40;12.80;;;1.10;99.90;;;;;;4896598;29;20040;-70
2022/01/08 08:37:56;;;;;;;24.83;12.80;;;1.20;99.90;;;;;;4876235;29;20032;-70
2022/01/08 08:40:21;;;;;;;24.70;13.00;;;1.20;99.90;;;;;;4881163;29;20039;-71
2022/01/08 08:42:47;;;;;;;23.05;12.90;;;1.20;99.90;;;;;;4897978;29;20657;-70
2022/01/08 08:45:12;;;;;;;33.95;15.60;;;1.20;99.90;;;;;;4898567;29;20036;-70
2022/01/08 08:47:39;;;;;;;22.75;12.35;;;1.20;99.90;;;;;;4901305;29;20032;-70
2022/01/08 08:50:06;;;;;;;41.20;17.98;;;1.20;99.90;;;;;;4902791;29;20780;-70
2022/01/08 08:52:31;;;;;;;46.58;20.35;;;1.10;99.90;;;;;;4895753;29;20055;-70
2022/01/08 08:54:57;;;;;;;36.42;19.05;;;1.10;99.90;;;;;;4899289;29;20036;-70
2022/01/08 08:57:22;;;;;;;31.98;16.23;;;1.20;99.90;;;;;;4868214;29;20043;-70
2022/01/08 08:59:48;;;;;;;28.75;14.90;;;1.10;99.90;;;;;;4896251;29;20032;-70
2022/01/08 09:02:13;;;;;;;27.02;13.75;;;1.10;99.90;;;;;;4894545;29;20060;-71
2022/01/08 09:04:40;;;;;;;36.20;15.77;;;1.10;99.90;;;;;;4904364;29;20031;-71
2022/01/08 09:07:05;;;;;;;38.30;18.23;;;1.10;99.90;;;;;;4861772;29;20040;-70
2022/01/08 09:09:31;;;;;;;35.97;16.88;;;1.10;99.90;;;;;;4895293;29;20033;-70
2022/01/08 09:11:56;;;;;;;46.67;21.65;;;1.20;99.90;;;;;;4903412;29;20036;-71
2022/01/08 09:14:22;;;;;;;30.75;15.05;;;1.20;99.90;;;;;;4894804;29;20040;-71
2022/01/08 09:16:48;;;;;;;30.63;15.73;;;1.30;99.90;;;;;;4868481;29;20035;-71
2022/01/08 09:19:13;;;;;;;32.17;15.10;;;1.30;99.90;;;;;;4885937;29;20072;-70
2022/01/08 09:21:39;;;;;;;35.40;18.00;;;1.40;99.90;;;;;;4867857;29;20036;-71
2022/01/08 09:24:04;;;;;;;37.92;18.35;;;1.40;99.90;;;;;;4897886;29;20047;-70
2022/01/08 09:26:30;;;;;;;32.55;16.45;;;1.40;99.90;;;;;;4883565;29;20104;-70
2022/01/08 09:28:55;;;;;;;32.75;17.02;;;1.50;99.90;;;;;;4896143;29;20063;-71
2022/01/08 09:31:21;;;;;;;30.08;15.30;;;1.50;99.90;;;;;;4899848;29;20060;-70
2022/01/08 09:33:46;;;;;;;31.58;16.63;;;1.60;99.90;;;;;;4894120;29;20036;-71
2022/01/08 09:36:12;;;;;;;41.72;17.67;;;1.60;99.90;;;;;;4885531;29;20079;-71
2022/01/08 09:38:37;;;;;;;32.72;16.73;;;1.70;99.90;;;;;;4898979;29;20039;-70
2022/01/08 09:41:03;;;;;;;56.15;28.48;;;1.70;99.90;;;;;;4898288;29;20036;-71
2022/01/08 09:43:32;;;;;;;88.40;42.38;;;1.70;99.90;;;;;;4869221;29;20224;-71
2022/01/08 09:45:57;;;;;;;85.85;43.42;;;1.80;99.90;;;;;;4882952;29;20028;-71
2022/01/08 09:48:23;;;;;;;57.05;30.20;;;1.80;99.90;;;;;;4903067;29;20028;-70
2022/01/08 09:50:48;;;;;;;52.22;25.52;;;1.80;99.90;;;;;;4882436;29;20067;-71
2022/01/08 09:53:14;;;;;;;64.53;32.67;;;1.70;99.90;;;;;;4902939;29;20107;-72
2022/01/08 09:55:39;;;;;;;61.22;30.27;;;1.60;99.90;;;;;;4903999;29;20424;-71
2022/01/08 09:58:05;;;;;;;50.10;23.63;;;1.60;99.90;;;;;;4902881;29;20683;-71
2022/01/08 10:00:30;;;;;;;52.58;23.58;;;1.60;99.90;;;;;;4888585;29;20036;-72
2022/01/08 10:02:56;;;;;;;45.60;21.45;;;1.50;99.90;;;;;;4899630;29;20028;-72
2022/01/08 10:05:21;;;;;;;37.95;17.90;;;1.50;99.90;;;;;;4905122;29;20036;-71
2022/01/08 10:07:47;;;;;;;45.40;20.67;;;1.60;99.90;;;;;;4904141;29;20032;-71
2022/01/08 10:10:13;;;;;;;50.13;22.50;;;1.60;99.90;;;;;;4898355;29;20607;-71
2022/01/08 10:12:39;;;;;;;39.75;18.35;;;1.70;99.90;;;;;;4894987;29;20068;-71
2022/01/08 10:17:49;;;;;;;39.05;19.17;;;1.70;99.90;;;;;;4897210;29;20942;-71
2022/01/08 10:20:14;;;;;;;31.10;16.27;;;1.80;99.90;;;;;;4899141;29;20040;-71
2022/01/08 10:22:40;;;;;;;33.65;15.80;;;1.80;99.90;;;;;;4897597;29;20397;-71
2022/01/08 10:25:05;;;;;;;31.17;15.93;;;2.00;99.90;;;;;;4897246;29;20028;-71
2022/01/08 10:27:31;;;;;;;31.00;14.95;;;2.10;99.90;;;;;;4894543;29;20144;-70
2022/01/08 10:29:56;;;;;;;24.08;13.57;;;2.20;99.90;;;;;;4883211;29;20043;-71
2022/01/08 10:32:22;;;;;;;26.10;13.50;;;2.40;99.90;;;;;;4897249;29;20075;-72
2022/01/08 10:34:47;;;;;;;22.23;12.70;;;2.60;99.90;;;;;;4895027;29;20532;-69
2022/01/08 10:37:13;;;;;;;22.45;11.65;;;2.80;99.90;;;;;;4893815;29;20775;-71
2022/01/08 10:39:38;;;;;;;21.70;10.98;;;2.80;99.90;;;;;;4885611;29;20028;-73
2022/01/08 10:42:04;;;;;;;23.13;10.40;;;2.90;99.90;;;;;;4878621;29;20092;-74
2022/01/08 10:44:29;;;;;;;23.08;11.50;;;3.00;99.90;;;;;;4883071;29;20526;-73
2022/01/08 10:46:55;;;;;;;19.15;11.02;;;3.00;99.90;;;;;;4897042;29;20059;-72
2022/01/08 10:49:20;;;;;;;16.55;9.77;;;3.00;99.90;;;;;;4899289;29;20400;-69
2022/01/08 10:51:46;;;;;;;27.20;12.88;;;3.10;99.90;;;;;;4894424;29;20084;-70
2022/01/08 10:54:11;;;;;;;20.38;11.13;;;3.10;99.90;;;;;;4902188;29;20032;-70
2022/01/08 10:56:37;;;;;;;33.05;14.60;;;3.10;99.90;;;;;;4901753;29;20036;-69
2022/01/08 10:59:02;;;;;;;23.58;12.88;;;3.20;99.90;;;;;;4877328;29;20028;-70
2022/01/08 11:01:28;;;;;;;18.38;9.60;;;3.20;99.90;;;;;;4897596;29;20058;-68
2022/01/08 11:03:53;;;;;;;25.58;11.43;;;3.20;99.90;;;;;;4880905;29;20081;-68
2022/01/08 11:06:19;;;;;;;24.00;14.98;;;3.10;99.90;;;;;;4885414;29;20028;-68
2022/01/08 11:08:44;;;;;;;17.65;10.38;;;3.10;99.90;;;;;;4904920;29;20032;-69
2022/01/08 11:11:14;;;;;;;42.97;11.15;;;3.10;99.90;;;;;;4900560;29;20119;-68
2022/01/08 11:13:40;;;;;;;19.80;9.73;;;3.10;99.90;;;;;;4901451;29;20802;-69
2022/01/08 11:16:05;;;;;;;18.75;10.00;;;3.10;99.90;;;;;;4885226;29;20032;-68
2022/01/08 11:18:31;;;;;;;19.23;9.55;;;3.10;99.90;;;;;;4886675;29;20040;-69
2022/01/08 11:20:56;;;;;;;22.48;10.23;;;3.10;99.90;;;;;;4885995;29;20036;-69
2022/01/08 11:23:23;;;;;;;33.70;12.48;;;3.10;99.90;;;;;;4885556;29;20123;-69
2022/01/08 11:25:48;;;;;;;23.15;10.65;;;3.10;99.90;;;;;;4902176;29;20024;-69
2022/01/08 11:28:14;;;;;;;18.10;8.98;;;3.20;99.90;;;;;;4899842;29;20173;-68
2022/01/08 11:30:39;;;;;;;19.90;9.65;;;3.30;99.90;;;;;;4886290;29;20419;-69
2022/01/08 11:33:09;;;;;;;17.23;10.13;;;3.40;99.90;;;;;;4870350;29;20056;-68
2022/01/08 11:35:36;;;;;;;24.73;10.35;;;3.40;99.90;;;;;;4900833;29;20044;-68
2022/01/08 11:38:04;;;;;;;120.53;37.45;;;3.50;99.90;;;;;;4883969;29;20043;-69
2022/01/08 11:40:29;;;;;;;19.88;10.32;;;3.50;99.90;;;;;;4901360;29;20032;-68
2022/01/08 11:42:55;;;;;;;18.08;9.98;;;3.70;99.90;;;;;;4898825;29;20032;-69
2022/01/08 11:45:20;;;;;;;20.25;10.80;;;3.50;99.90;;;;;;4900692;29;20111;-68
2022/01/08 11:47:46;;;;;;;32.55;13.80;;;3.50;99.90;;;;;;4902553;29;20039;-69
2022/01/08 11:50:11;;;;;;;22.73;10.23;;;3.70;99.90;;;;;;4900685;29;20062;-68
2022/01/08 11:52:36;;;;;;;25.45;11.93;;;3.90;99.90;;;;;;4899508;29;20242;-69
2022/01/08 11:55:02;;;;;;;18.38;9.30;;;4.00;99.90;;;;;;4898101;29;20356;-69
2022/01/08 11:57:27;;;;;;;14.27;8.52;;;4.10;99.90;;;;;;4883820;29;20048;-68
2022/01/08 11:59:57;;;;;;;25.27;11.27;;;4.10;99.90;;;;;;4895945;29;20028;-69
2022/01/08 12:02:23;;;;;;;27.33;10.52;;;4.00;99.90;;;;;;4886889;29;20039;-69
2022/01/08 12:04:48;;;;;;;19.08;8.68;;;4.00;99.90;;;;;;4879749;29;20040;-69
2022/01/08 12:07:13;;;;;;;26.98;10.65;;;4.10;99.90;;;;;;4881778;29;20501;-70
2022/01/08 12:09:40;;;;;;;49.97;15.20;;;4.20;99.90;;;;;;4884415;29;20028;-69
2022/01/08 12:12:06;;;;;;;18.33;10.15;;;4.50;99.90;;;;;;4891240;29;20552;-69
2022/01/08 12:14:31;;;;;;;19.13;9.80;;;4.90;99.90;;;;;;4883023;29;20046;-69
2022/01/08 12:16:57;;;;;;;27.45;12.02;;;5.20;99.90;;;;;;4898680;29;20024;-70
2022/01/08 12:19:22;;;;;;;17.25;9.57;;;5.50;99.90;;;;;;4882319;29;20404;-70
2022/01/08 12:21:48;;;;;;;20.85;10.75;;;5.70;99.90;;;;;;4900174;29;20032;-69
2022/01/08 12:24:13;;;;;;;19.42;8.88;;;5.90;99.90;;;;;;4881176;29;20036;-69
2022/01/08 12:26:39;;;;;;;16.52;7.65;;;6.20;99.90;;;;;;4896998;29;20060;-70
2022/01/08 12:29:04;;;;;;;26.05;9.00;;;6.20;99.90;;;;;;4900014;29;20028;-69
2022/01/08 12:31:31;;;;;;;25.63;9.55;;;5.80;99.90;;;;;;4881082;29;20787;-70
2022/01/08 12:33:56;;;;;;;15.65;8.50;;;5.80;99.90;;;;;;4887133;29;20158;-70
2022/01/08 12:36:22;;;;;;;15.90;8.18;;;5.70;99.90;;;;;;4896141;29;20388;-69
2022/01/08 12:38:47;;;;;;;13.85;7.35;;;5.40;99.90;;;;;;4899813;29;20042;-69
2022/01/08 12:41:13;;;;;;;19.45;9.23;;;5.30;99.90;;;;;;4897623;29;20488;-69
2022/01/08 12:43:38;;;;;;;16.25;8.30;;;5.20;99.90;;;;;;4883444;29;20035;-69
2022/01/08 12:46:04;;;;;;;19.70;8.43;;;5.10;99.90;;;;;;4894053;29;20067;-69
2022/01/08 12:48:29;;;;;;;19.55;8.65;;;4.90;99.90;;;;;;4902083;29;20038;-69
2022/01/08 12:50:56;;;;;;;26.35;10.00;;;4.70;99.90;;;;;;4884621;29;20055;-69